sensor_id;sensor_type;location;lat;lon;timestamp;P1;durP1;ratioP1;P2;durP2;ratioP2
17725;SDS011;8983;53.156;17.960;2023-02-03T00:01:58;9.93;;;6.00;;
17725;SDS011;8983;53.156;17.960;2023-02-03T00:04:26;11.93;;;6.03;;
17725;SDS011;8983;53.156;17.960;2023-02-03T00:06:54;8.67;;;5.53;;
17725;SDS011;8983;53.156;17.960;2023-02-03T00:09:22;10.10;;;5.93;;
17725;SDS011;8983;53.156;17.960;2023-02-03T00:11:50;7.63;;;5.03;;
17725;SDS011;8983;53.156;17.960;2023-02-03T00:14:18;8.07;;;5.23;;
17725;SDS011;8983;53.156;17.960;2023-02-03T00:16:46;10.87;;;6.00;;
17725;SDS011;8983;53.156;17.960;2023-02-03T00:19:16;9.63;;;5.90;;
17725;SDS011;8983;53.156;17.960;2023-02-03T00:21:44;10.13;;;6.30;;
17725;SDS011;8983;53.156;17.960;2023-02-03T00:24:12;10.37;;;6.60;;
17725;SDS011;8983;53.156;17.960;2023-02-03T00:26:40;8.90;;;5.57;;
17725;SDS011;8983;53.156;17.960;2023-02-03T00:29:09;10.50;;;6.03;;
17725;SDS011;8983;53.156;17.960;2023-02-03T00:31:37;9.83;;;4.70;;
17725;SDS011;8983;53.156;17.960;2023-02-03T00:34:05;7.23;;;5.33;;
17725;SDS011;8983;53.156;17.960;2023-02-03T00:36:35;7.77;;;4.50;;
17725;SDS011;8983;53.156;17.960;2023-02-03T00:39:03;7.70;;;4.83;;
17725;SDS011;8983;53.156;17.960;2023-02-03T00:41:31;7.77;;;4.63;;
17725;SDS011;8983;53.156;17.960;2023-02-03T00:43:59;7.37;;;4.33;;
17725;SDS011;8983;53.156;17.960;2023-02-03T00:46:27;6.30;;;4.30;;
17725;SDS011;8983;53.156;17.960;2023-02-03T00:48:55;6.23;;;4.33;;
17725;SDS011;8983;53.156;17.960;2023-02-03T00:51:23;8.10;;;4.90;;
17725;SDS011;8983;53.156;17.960;2023-02-03T00:53:52;6.97;;;4.50;;
17725;SDS011;8983;53.156;17.960;2023-02-03T00:56:20;9.00;;;5.00;;
17725;SDS011;8983;53.156;17.960;2023-02-03T00:58:48;7.57;;;4.63;;
17725;SDS011;8983;53.156;17.960;2023-02-03T01:01:16;7.33;;;4.60;;
17725;SDS011;8983;53.156;17.960;2023-02-03T01:03:44;10.97;;;5.47;;
17725;SDS011;8983;53.156;17.960;2023-02-03T01:06:13;9.37;;;5.30;;
17725;SDS011;8983;53.156;17.960;2023-02-03T01:08:42;12.37;;;5.73;;
17725;SDS011;8983;53.156;17.960;2023-02-03T01:11:12;8.60;;;5.40;;
17725;SDS011;8983;53.156;17.960;2023-02-03T01:13:42;7.33;;;5.10;;
17725;SDS011;8983;53.156;17.960;2023-02-03T01:16:12;9.93;;;5.60;;
17725;SDS011;8983;53.156;17.960;2023-02-03T01:18:41;10.57;;;4.87;;
17725;SDS011;8983;53.156;17.960;2023-02-03T01:21:10;11.13;;;5.27;;
17725;SDS011;8983;53.156;17.960;2023-02-03T01:23:40;8.20;;;5.47;;
17725;SDS011;8983;53.156;17.960;2023-02-03T01:26:08;9.47;;;5.60;;
17725;SDS011;8983;53.156;17.960;2023-02-03T01:28:39;11.23;;;5.77;;
17725;SDS011;8983;53.156;17.960;2023-02-03T01:31:08;17.13;;;6.90;;
17725;SDS011;8983;53.156;17.960;2023-02-03T01:33:38;9.23;;;5.53;;
17725;SDS011;8983;53.156;17.960;2023-02-03T01:36:07;15.00;;;6.57;;
17725;SDS011;8983;53.156;17.960;2023-02-03T01:38:36;23.80;;;11.97;;
17725;SDS011;8983;53.156;17.960;2023-02-03T01:41:05;29.80;;;14.30;;
17725;SDS011;8983;53.156;17.960;2023-02-03T01:43:35;26.87;;;12.10;;
17725;SDS011;8983;53.156;17.960;2023-02-03T01:46:13;20.13;;;11.93;;
17725;SDS011;8983;53.156;17.960;2023-02-03T01:48:48;19.87;;;9.93;;
17725;SDS011;8983;53.156;17.960;2023-02-03T01:51:16;11.67;;;8.07;;
17725;SDS011;8983;53.156;17.960;2023-02-03T01:53:45;14.23;;;6.67;;
17725;SDS011;8983;53.156;17.960;2023-02-03T01:56:13;11.17;;;6.63;;
17725;SDS011;8983;53.156;17.960;2023-02-03T01:58:41;11.17;;;6.43;;
17725;SDS011;8983;53.156;17.960;2023-02-03T02:01:13;10.30;;;5.50;;
17725;SDS011;8983;53.156;17.960;2023-02-03T02:03:44;11.07;;;6.60;;
17725;SDS011;8983;53.156;17.960;2023-02-03T02:06:16;10.10;;;5.43;;
17725;SDS011;8983;53.156;17.960;2023-02-03T02:08:45;11.73;;;6.77;;
17725;SDS011;8983;53.156;17.960;2023-02-03T02:11:15;14.93;;;7.23;;
17725;SDS011;8983;53.156;17.960;2023-02-03T02:13:43;15.43;;;8.80;;
17725;SDS011;8983;53.156;17.960;2023-02-03T02:16:15;13.57;;;7.07;;
17725;SDS011;8983;53.156;17.960;2023-02-03T02:18:49;13.53;;;8.43;;
17725;SDS011;8983;53.156;17.960;2023-02-03T02:21:41;17.67;;;8.30;;
17725;SDS011;8983;53.156;17.960;2023-02-03T02:24:40;19.07;;;9.97;;
17725;SDS011;8983;53.156;17.960;2023-02-03T02:27:42;17.97;;;9.17;;
17725;SDS011;8983;53.156;17.960;2023-02-03T02:33:35;16.77;;;8.83;;
17725;SDS011;8983;53.156;17.960;2023-02-03T02:36:13;20.80;;;10.13;;
17725;SDS011;8983;53.156;17.960;2023-02-03T02:38:53;15.77;;;9.87;;
17725;SDS011;8983;53.156;17.960;2023-02-03T02:41:27;17.10;;;9.87;;
17725;SDS011;8983;53.156;17.960;2023-02-03T02:44:02;15.60;;;10.23;;
17725;SDS011;8983;53.156;17.960;2023-02-03T02:46:36;19.13;;;11.27;;
17725;SDS011;8983;53.156;17.960;2023-02-03T02:49:10;20.73;;;10.03;;
17725;SDS011;8983;53.156;17.960;2023-02-03T02:51:42;19.17;;;9.83;;
17725;SDS011;8983;53.156;17.960;2023-02-03T02:54:14;17.20;;;8.93;;
17725;SDS011;8983;53.156;17.960;2023-02-03T02:56:46;21.47;;;10.03;;
17725;SDS011;8983;53.156;17.960;2023-02-03T02:59:18;21.50;;;10.60;;
17725;SDS011;8983;53.156;17.960;2023-02-03T03:01:46;20.83;;;10.20;;
17725;SDS011;8983;53.156;17.960;2023-02-03T03:04:17;15.37;;;9.13;;
17725;SDS011;8983;53.156;17.960;2023-02-03T03:06:49;15.43;;;9.67;;
17725;SDS011;8983;53.156;17.960;2023-02-03T03:09:23;21.13;;;9.80;;
17725;SDS011;8983;53.156;17.960;2023-02-03T03:11:55;16.77;;;9.00;;
17725;SDS011;8983;53.156;17.960;2023-02-03T03:14:28;19.27;;;9.87;;
17725;SDS011;8983;53.156;17.960;2023-02-03T03:16:59;18.37;;;9.27;;
17725;SDS011;8983;53.156;17.960;2023-02-03T03:19:33;18.63;;;9.13;;
17725;SDS011;8983;53.156;17.960;2023-02-03T03:22:06;14.57;;;7.40;;
17725;SDS011;8983;53.156;17.960;2023-02-03T03:24:38;12.90;;;6.77;;
17725;SDS011;8983;53.156;17.960;2023-02-03T03:27:13;14.03;;;6.57;;
17725;SDS011;8983;53.156;17.960;2023-02-03T03:29:47;10.17;;;6.57;;
17725;SDS011;8983;53.156;17.960;2023-02-03T03:32:18;13.73;;;6.83;;
17725;SDS011;8983;53.156;17.960;2023-02-03T03:34:48;9.80;;;5.83;;
17725;SDS011;8983;53.156;17.960;2023-02-03T03:37:18;12.73;;;7.40;;
17725;SDS011;8983;53.156;17.960;2023-02-03T03:39:52;11.73;;;6.30;;
17725;SDS011;8983;53.156;17.960;2023-02-03T03:42:23;11.17;;;6.70;;
17725;SDS011;8983;53.156;17.960;2023-02-03T03:44:59;13.60;;;7.90;;
17725;SDS011;8983;53.156;17.960;2023-02-03T03:47:32;11.87;;;6.60;;
17725;SDS011;8983;53.156;17.960;2023-02-03T03:50:06;15.30;;;8.27;;
17725;SDS011;8983;53.156;17.960;2023-02-03T03:52:37;21.90;;;10.33;;
17725;SDS011;8983;53.156;17.960;2023-02-03T03:55:07;13.27;;;7.77;;
17725;SDS011;8983;53.156;17.960;2023-02-03T03:57:38;17.57;;;10.07;;
17725;SDS011;8983;53.156;17.960;2023-02-03T04:00:09;14.80;;;8.70;;
17725;SDS011;8983;53.156;17.960;2023-02-03T04:02:41;10.83;;;7.37;;
17725;SDS011;8983;53.156;17.960;2023-02-03T04:05:18;13.57;;;7.50;;
17725;SDS011;8983;53.156;17.960;2023-02-03T04:07:47;14.27;;;8.00;;
17725;SDS011;8983;53.156;17.960;2023-02-03T04:10:18;12.30;;;7.40;;
17725;SDS011;8983;53.156;17.960;2023-02-03T04:12:52;11.47;;;5.93;;
17725;SDS011;8983;53.156;17.960;2023-02-03T04:15:20;9.77;;;6.77;;
17725;SDS011;8983;53.156;17.960;2023-02-03T04:17:48;8.50;;;5.53;;
17725;SDS011;8983;53.156;17.960;2023-02-03T04:20:17;8.47;;;5.97;;
17725;SDS011;8983;53.156;17.960;2023-02-03T04:22:45;12.77;;;7.53;;
17725;SDS011;8983;53.156;17.960;2023-02-03T04:25:13;10.53;;;6.80;;
17725;SDS011;8983;53.156;17.960;2023-02-03T04:27:42;11.47;;;6.20;;
17725;SDS011;8983;53.156;17.960;2023-02-03T04:30:10;18.33;;;9.57;;
17725;SDS011;8983;53.156;17.960;2023-02-03T04:32:39;39.57;;;19.00;;
17725;SDS011;8983;53.156;17.960;2023-02-03T04:35:07;70.37;;;28.83;;
17725;SDS011;8983;53.156;17.960;2023-02-03T04:37:36;75.23;;;26.37;;
17725;SDS011;8983;53.156;17.960;2023-02-03T04:40:05;179.60;;;73.30;;
17725;SDS011;8983;53.156;17.960;2023-02-03T04:42:35;53.00;;;26.70;;
17725;SDS011;8983;53.156;17.960;2023-02-03T04:45:04;30.30;;;17.17;;
17725;SDS011;8983;53.156;17.960;2023-02-03T04:47:33;15.27;;;9.40;;
17725;SDS011;8983;53.156;17.960;2023-02-03T04:50:02;24.90;;;13.97;;
17725;SDS011;8983;53.156;17.960;2023-02-03T04:52:30;20.10;;;10.67;;
17725;SDS011;8983;53.156;17.960;2023-02-03T04:54:59;27.73;;;14.07;;
17725;SDS011;8983;53.156;17.960;2023-02-03T04:57:29;34.87;;;18.10;;
17725;SDS011;8983;53.156;17.960;2023-02-03T04:59:57;23.20;;;12.30;;
17725;SDS011;8983;53.156;17.960;2023-02-03T05:02:25;61.50;;;25.33;;
17725;SDS011;8983;53.156;17.960;2023-02-03T05:04:53;19.53;;;11.30;;
17725;SDS011;8983;53.156;17.960;2023-02-03T05:07:21;66.47;;;27.93;;
17725;SDS011;8983;53.156;17.960;2023-02-03T05:09:49;23.27;;;11.80;;
17725;SDS011;8983;53.156;17.960;2023-02-03T05:12:18;13.17;;;8.73;;
17725;SDS011;8983;53.156;17.960;2023-02-03T05:14:46;14.53;;;9.37;;
17725;SDS011;8983;53.156;17.960;2023-02-03T05:17:14;52.70;;;26.80;;
17725;SDS011;8983;53.156;17.960;2023-02-03T05:19:42;31.63;;;14.53;;
17725;SDS011;8983;53.156;17.960;2023-02-03T05:22:10;32.40;;;17.27;;
17725;SDS011;8983;53.156;17.960;2023-02-03T05:24:39;33.20;;;17.47;;
17725;SDS011;8983;53.156;17.960;2023-02-03T05:27:07;16.60;;;9.43;;
17725;SDS011;8983;53.156;17.960;2023-02-03T05:29:36;30.93;;;14.07;;
17725;SDS011;8983;53.156;17.960;2023-02-03T05:32:04;27.47;;;14.63;;
17725;SDS011;8983;53.156;17.960;2023-02-03T05:34:32;20.17;;;12.53;;
17725;SDS011;8983;53.156;17.960;2023-02-03T05:37:00;16.83;;;9.40;;
17725;SDS011;8983;53.156;17.960;2023-02-03T05:39:30;15.10;;;9.33;;
17725;SDS011;8983;53.156;17.960;2023-02-03T05:41:58;19.90;;;11.10;;
17725;SDS011;8983;53.156;17.960;2023-02-03T05:44:25;17.87;;;9.30;;
17725;SDS011;8983;53.156;17.960;2023-02-03T05:46:57;21.30;;;11.63;;
17725;SDS011;8983;53.156;17.960;2023-02-03T05:49:26;28.67;;;14.60;;
17725;SDS011;8983;53.156;17.960;2023-02-03T05:51:54;27.30;;;13.53;;
17725;SDS011;8983;53.156;17.960;2023-02-03T05:54:22;25.57;;;12.47;;
17725;SDS011;8983;53.156;17.960;2023-02-03T05:56:51;22.50;;;10.73;;
17725;SDS011;8983;53.156;17.960;2023-02-03T05:59:19;24.27;;;13.47;;
17725;SDS011;8983;53.156;17.960;2023-02-03T06:01:46;18.20;;;9.17;;
17725;SDS011;8983;53.156;17.960;2023-02-03T06:04:16;18.90;;;8.67;;
17725;SDS011;8983;53.156;17.960;2023-02-03T06:06:44;20.67;;;9.37;;
17725;SDS011;8983;53.156;17.960;2023-02-03T06:09:13;20.33;;;12.47;;
17725;SDS011;8983;53.156;17.960;2023-02-03T06:11:40;20.57;;;11.83;;
17725;SDS011;8983;53.156;17.960;2023-02-03T06:14:08;22.03;;;13.07;;
17725;SDS011;8983;53.156;17.960;2023-02-03T06:16:37;32.40;;;14.40;;
17725;SDS011;8983;53.156;17.960;2023-02-03T06:19:05;23.03;;;10.83;;
17725;SDS011;8983;53.156;17.960;2023-02-03T06:21:34;28.23;;;14.47;;
17725;SDS011;8983;53.156;17.960;2023-02-03T06:24:02;15.40;;;9.47;;
17725;SDS011;8983;53.156;17.960;2023-02-03T06:26:30;36.03;;;17.63;;
17725;SDS011;8983;53.156;17.960;2023-02-03T06:28:58;50.53;;;23.80;;
17725;SDS011;8983;53.156;17.960;2023-02-03T06:31:26;29.83;;;15.97;;
17725;SDS011;8983;53.156;17.960;2023-02-03T06:33:54;23.60;;;11.97;;
17725;SDS011;8983;53.156;17.960;2023-02-03T06:36:22;17.47;;;10.13;;
17725;SDS011;8983;53.156;17.960;2023-02-03T06:38:51;23.60;;;12.67;;
17725;SDS011;8983;53.156;17.960;2023-02-03T06:41:19;51.97;;;26.50;;
17725;SDS011;8983;53.156;17.960;2023-02-03T06:43:52;22.10;;;12.60;;
17725;SDS011;8983;53.156;17.960;2023-02-03T06:46:20;27.53;;;15.53;;
17725;SDS011;8983;53.156;17.960;2023-02-03T06:48:48;28.77;;;14.60;;
17725;SDS011;8983;53.156;17.960;2023-02-03T06:51:16;19.93;;;11.57;;
17725;SDS011;8983;53.156;17.960;2023-02-03T06:53:47;28.20;;;15.03;;
17725;SDS011;8983;53.156;17.960;2023-02-03T06:56:16;21.40;;;11.37;;
17725;SDS011;8983;53.156;17.960;2023-02-03T06:58:44;20.63;;;10.93;;
17725;SDS011;8983;53.156;17.960;2023-02-03T07:01:12;30.73;;;14.37;;
17725;SDS011;8983;53.156;17.960;2023-02-03T07:03:40;9.33;;;5.77;;
17725;SDS011;8983;53.156;17.960;2023-02-03T07:06:08;22.53;;;11.07;;
17725;SDS011;8983;53.156;17.960;2023-02-03T07:08:36;24.13;;;12.17;;
17725;SDS011;8983;53.156;17.960;2023-02-03T07:11:04;26.87;;;13.23;;
17725;SDS011;8983;53.156;17.960;2023-02-03T07:13:34;29.83;;;14.73;;
17725;SDS011;8983;53.156;17.960;2023-02-03T07:16:02;25.03;;;11.20;;
17725;SDS011;8983;53.156;17.960;2023-02-03T07:18:30;20.50;;;10.80;;
17725;SDS011;8983;53.156;17.960;2023-02-03T07:21:13;18.13;;;8.73;;
17725;SDS011;8983;53.156;17.960;2023-02-03T07:23:41;19.23;;;9.43;;
17725;SDS011;8983;53.156;17.960;2023-02-03T07:26:10;20.93;;;9.97;;
17725;SDS011;8983;53.156;17.960;2023-02-03T07:28:39;18.70;;;9.00;;
17725;SDS011;8983;53.156;17.960;2023-02-03T07:31:07;15.00;;;9.40;;
17725;SDS011;8983;53.156;17.960;2023-02-03T07:33:36;18.53;;;9.93;;
17725;SDS011;8983;53.156;17.960;2023-02-03T07:36:05;20.83;;;11.53;;
17725;SDS011;8983;53.156;17.960;2023-02-03T07:38:33;19.37;;;10.30;;
17725;SDS011;8983;53.156;17.960;2023-02-03T07:41:03;19.27;;;10.23;;
17725;SDS011;8983;53.156;17.960;2023-02-03T07:43:32;26.00;;;11.70;;
17725;SDS011;8983;53.156;17.960;2023-02-03T07:46:01;24.17;;;10.47;;
17725;SDS011;8983;53.156;17.960;2023-02-03T07:48:29;8.87;;;4.90;;
17725;SDS011;8983;53.156;17.960;2023-02-03T07:50:57;12.73;;;7.47;;
17725;SDS011;8983;53.156;17.960;2023-02-03T07:53:25;8.37;;;5.73;;
17725;SDS011;8983;53.156;17.960;2023-02-03T07:55:53;15.67;;;8.90;;
17725;SDS011;8983;53.156;17.960;2023-02-03T07:58:21;19.23;;;10.27;;
17725;SDS011;8983;53.156;17.960;2023-02-03T08:00:49;14.23;;;8.70;;
17725;SDS011;8983;53.156;17.960;2023-02-03T08:03:18;19.10;;;10.13;;
17725;SDS011;8983;53.156;17.960;2023-02-03T08:05:46;20.70;;;11.73;;
17725;SDS011;8983;53.156;17.960;2023-02-03T08:08:15;25.67;;;12.80;;
17725;SDS011;8983;53.156;17.960;2023-02-03T08:10:42;17.67;;;10.20;;
17725;SDS011;8983;53.156;17.960;2023-02-03T08:13:13;23.57;;;11.63;;
17725;SDS011;8983;53.156;17.960;2023-02-03T08:15:41;22.23;;;10.03;;
17725;SDS011;8983;53.156;17.960;2023-02-03T08:18:09;20.90;;;12.87;;
17725;SDS011;8983;53.156;17.960;2023-02-03T08:20:39;33.33;;;15.13;;
17725;SDS011;8983;53.156;17.960;2023-02-03T08:23:07;28.20;;;14.23;;
17725;SDS011;8983;53.156;17.960;2023-02-03T08:25:35;22.37;;;12.90;;
17725;SDS011;8983;53.156;17.960;2023-02-03T08:28:03;23.63;;;13.20;;
17725;SDS011;8983;53.156;17.960;2023-02-03T08:30:31;23.57;;;13.70;;
17725;SDS011;8983;53.156;17.960;2023-02-03T08:32:59;18.20;;;10.77;;
17725;SDS011;8983;53.156;17.960;2023-02-03T08:35:27;22.37;;;12.10;;
17725;SDS011;8983;53.156;17.960;2023-02-03T08:38:08;20.43;;;12.70;;
17725;SDS011;8983;53.156;17.960;2023-02-03T08:40:37;22.60;;;11.83;;
17725;SDS011;8983;53.156;17.960;2023-02-03T08:43:05;22.37;;;12.77;;
17725;SDS011;8983;53.156;17.960;2023-02-03T08:45:33;16.40;;;7.77;;
17725;SDS011;8983;53.156;17.960;2023-02-03T08:48:01;17.47;;;11.30;;
17725;SDS011;8983;53.156;17.960;2023-02-03T08:50:29;18.87;;;9.47;;
17725;SDS011;8983;53.156;17.960;2023-02-03T08:52:57;31.70;;;14.57;;
17725;SDS011;8983;53.156;17.960;2023-02-03T08:55:26;22.77;;;12.67;;
17725;SDS011;8983;53.156;17.960;2023-02-03T08:57:54;21.80;;;13.97;;
17725;SDS011;8983;53.156;17.960;2023-02-03T09:00:23;20.77;;;12.13;;
17725;SDS011;8983;53.156;17.960;2023-02-03T09:02:51;21.67;;;12.73;;
17725;SDS011;8983;53.156;17.960;2023-02-03T09:05:19;13.23;;;9.77;;
17725;SDS011;8983;53.156;17.960;2023-02-03T09:07:48;17.30;;;11.90;;
17725;SDS011;8983;53.156;17.960;2023-02-03T09:10:16;22.73;;;12.70;;
17725;SDS011;8983;53.156;17.960;2023-02-03T09:12:45;18.60;;;11.13;;
17725;SDS011;8983;53.156;17.960;2023-02-03T09:15:13;24.43;;;13.53;;
17725;SDS011;8983;53.156;17.960;2023-02-03T09:17:41;20.23;;;11.77;;
17725;SDS011;8983;53.156;17.960;2023-02-03T09:20:10;10.50;;;7.43;;
17725;SDS011;8983;53.156;17.960;2023-02-03T09:22:40;27.13;;;16.33;;
17725;SDS011;8983;53.156;17.960;2023-02-03T09:25:08;18.70;;;12.87;;
17725;SDS011;8983;53.156;17.960;2023-02-03T09:27:36;22.47;;;12.57;;
17725;SDS011;8983;53.156;17.960;2023-02-03T09:30:06;21.57;;;13.77;;
17725;SDS011;8983;53.156;17.960;2023-02-03T09:32:35;23.40;;;12.00;;
17725;SDS011;8983;53.156;17.960;2023-02-03T09:35:03;21.63;;;13.37;;
17725;SDS011;8983;53.156;17.960;2023-02-03T09:37:32;20.60;;;12.77;;
17725;SDS011;8983;53.156;17.960;2023-02-03T09:40:00;14.70;;;7.67;;
17725;SDS011;8983;53.156;17.960;2023-02-03T09:45:27;17.53;;;11.50;;
17725;SDS011;8983;53.156;17.960;2023-02-03T09:47:57;19.73;;;11.03;;
17725;SDS011;8983;53.156;17.960;2023-02-03T09:50:30;8.20;;;6.57;;
17725;SDS011;8983;53.156;17.960;2023-02-03T09:53:02;14.27;;;9.00;;
17725;SDS011;8983;53.156;17.960;2023-02-03T09:55:34;20.13;;;13.23;;
17725;SDS011;8983;53.156;17.960;2023-02-03T09:58:07;15.57;;;10.60;;
17725;SDS011;8983;53.156;17.960;2023-02-03T10:00:40;16.73;;;10.87;;
17725;SDS011;8983;53.156;17.960;2023-02-03T10:03:13;18.63;;;10.23;;
17725;SDS011;8983;53.156;17.960;2023-02-03T10:05:54;15.07;;;9.33;;
17725;SDS011;8983;53.156;17.960;2023-02-03T10:08:55;18.13;;;9.63;;
17725;SDS011;8983;53.156;17.960;2023-02-03T10:11:43;12.67;;;5.57;;
17725;SDS011;8983;53.156;17.960;2023-02-03T10:14:29;12.77;;;6.97;;
17725;SDS011;8983;53.156;17.960;2023-02-03T10:17:07;24.37;;;12.27;;
17725;SDS011;8983;53.156;17.960;2023-02-03T10:19:44;27.83;;;12.47;;
17725;SDS011;8983;53.156;17.960;2023-02-03T10:22:16;55.20;;;28.23;;
17725;SDS011;8983;53.156;17.960;2023-02-03T10:24:48;19.93;;;11.33;;
17725;SDS011;8983;53.156;17.960;2023-02-03T10:27:20;22.13;;;11.23;;
17725;SDS011;8983;53.156;17.960;2023-02-03T10:29:52;12.50;;;8.80;;
17725;SDS011;8983;53.156;17.960;2023-02-03T10:32:26;19.07;;;10.43;;
17725;SDS011;8983;53.156;17.960;2023-02-03T10:34:55;13.60;;;7.53;;
17725;SDS011;8983;53.156;17.960;2023-02-03T10:37:25;12.83;;;7.40;;
17725;SDS011;8983;53.156;17.960;2023-02-03T10:39:56;25.50;;;10.93;;
17725;SDS011;8983;53.156;17.960;2023-02-03T10:42:26;13.40;;;8.07;;
17725;SDS011;8983;53.156;17.960;2023-02-03T10:45:15;53.93;;;25.77;;
17725;SDS011;8983;53.156;17.960;2023-02-03T10:47:45;23.93;;;13.97;;
17725;SDS011;8983;53.156;17.960;2023-02-03T10:50:17;28.30;;;13.73;;
17725;SDS011;8983;53.156;17.960;2023-02-03T10:52:46;21.67;;;10.63;;
17725;SDS011;8983;53.156;17.960;2023-02-03T10:55:27;36.33;;;19.10;;
17725;SDS011;8983;53.156;17.960;2023-02-03T10:57:57;30.33;;;16.20;;
17725;SDS011;8983;53.156;17.960;2023-02-03T11:00:38;33.10;;;16.40;;
17725;SDS011;8983;53.156;17.960;2023-02-03T11:03:15;13.80;;;9.33;;
17725;SDS011;8983;53.156;17.960;2023-02-03T11:06:02;28.23;;;16.03;;
17725;SDS011;8983;53.156;17.960;2023-02-03T11:08:31;23.63;;;12.63;;
17725;SDS011;8983;53.156;17.960;2023-02-03T11:11:03;33.63;;;18.03;;
17725;SDS011;8983;53.156;17.960;2023-02-03T11:13:33;31.53;;;16.27;;
17725;SDS011;8983;53.156;17.960;2023-02-03T11:16:02;22.60;;;10.23;;
17725;SDS011;8983;53.156;17.960;2023-02-03T11:18:40;18.87;;;10.47;;
17725;SDS011;8983;53.156;17.960;2023-02-03T11:21:19;12.63;;;7.93;;
17725;SDS011;8983;53.156;17.960;2023-02-03T11:23:50;15.13;;;9.53;;
17725;SDS011;8983;53.156;17.960;2023-02-03T11:26:23;21.40;;;12.73;;
17725;SDS011;8983;53.156;17.960;2023-02-03T11:28:55;9.83;;;5.83;;
17725;SDS011;8983;53.156;17.960;2023-02-03T11:31:26;7.80;;;5.90;;
17725;SDS011;8983;53.156;17.960;2023-02-03T11:33:57;5.80;;;4.97;;
17725;SDS011;8983;53.156;17.960;2023-02-03T11:36:29;20.77;;;11.37;;
17725;SDS011;8983;53.156;17.960;2023-02-03T11:39:15;46.37;;;22.23;;
17725;SDS011;8983;53.156;17.960;2023-02-03T11:41:45;46.37;;;21.33;;
17725;SDS011;8983;53.156;17.960;2023-02-03T11:44:19;70.10;;;30.50;;
17725;SDS011;8983;53.156;17.960;2023-02-03T11:46:49;19.13;;;11.63;;
17725;SDS011;8983;53.156;17.960;2023-02-03T11:49:32;14.90;;;8.03;;
17725;SDS011;8983;53.156;17.960;2023-02-03T11:52:18;60.17;;;24.43;;
17725;SDS011;8983;53.156;17.960;2023-02-03T11:55:26;24.23;;;11.03;;
17725;SDS011;8983;53.156;17.960;2023-02-03T11:58:10;37.70;;;12.77;;
17725;SDS011;8983;53.156;17.960;2023-02-03T12:00:50;14.37;;;8.77;;
17725;SDS011;8983;53.156;17.960;2023-02-03T12:09:28;27.10;;;14.10;;
17725;SDS011;8983;53.156;17.960;2023-02-03T12:12:17;21.33;;;11.20;;
17725;SDS011;8983;53.156;17.960;2023-02-03T12:15:00;18.37;;;11.23;;
17725;SDS011;8983;53.156;17.960;2023-02-03T12:17:47;16.93;;;10.90;;
17725;SDS011;8983;53.156;17.960;2023-02-03T12:20:28;26.33;;;12.80;;
17725;SDS011;8983;53.156;17.960;2023-02-03T12:23:10;25.80;;;11.57;;
17725;SDS011;8983;53.156;17.960;2023-02-03T12:25:48;27.80;;;12.73;;
17725;SDS011;8983;53.156;17.960;2023-02-03T12:28:30;14.03;;;9.20;;
17725;SDS011;8983;53.156;17.960;2023-02-03T12:31:08;17.43;;;11.67;;
17725;SDS011;8983;53.156;17.960;2023-02-03T12:33:41;35.87;;;18.83;;
17725;SDS011;8983;53.156;17.960;2023-02-03T12:36:13;30.43;;;17.07;;
17725;SDS011;8983;53.156;17.960;2023-02-03T12:38:47;23.13;;;11.47;;
17725;SDS011;8983;53.156;17.960;2023-02-03T12:41:19;21.40;;;10.60;;
17725;SDS011;8983;53.156;17.960;2023-02-03T12:43:51;16.77;;;11.37;;
17725;SDS011;8983;53.156;17.960;2023-02-03T12:46:23;17.50;;;11.43;;
17725;SDS011;8983;53.156;17.960;2023-02-03T12:48:55;23.77;;;13.40;;
17725;SDS011;8983;53.156;17.960;2023-02-03T12:51:29;29.20;;;14.23;;
17725;SDS011;8983;53.156;17.960;2023-02-03T12:54:05;25.50;;;13.30;;
17725;SDS011;8983;53.156;17.960;2023-02-03T12:56:41;33.07;;;14.27;;
17725;SDS011;8983;53.156;17.960;2023-02-03T12:59:12;20.60;;;9.97;;
17725;SDS011;8983;53.156;17.960;2023-02-03T13:01:45;19.90;;;10.60;;
17725;SDS011;8983;53.156;17.960;2023-02-03T13:04:17;32.37;;;13.60;;
17725;SDS011;8983;53.156;17.960;2023-02-03T13:06:53;29.37;;;12.60;;
17725;SDS011;8983;53.156;17.960;2023-02-03T13:09:29;40.13;;;15.30;;
17725;SDS011;8983;53.156;17.960;2023-02-03T13:14:58;33.70;;;16.00;;
17725;SDS011;8983;53.156;17.960;2023-02-03T13:17:33;26.20;;;12.63;;
17725;SDS011;8983;53.156;17.960;2023-02-03T13:20:12;28.87;;;15.03;;
17725;SDS011;8983;53.156;17.960;2023-02-03T13:22:45;22.90;;;11.37;;
17725;SDS011;8983;53.156;17.960;2023-02-03T13:25:15;29.70;;;14.67;;
17725;SDS011;8983;53.156;17.960;2023-02-03T13:27:49;17.00;;;10.00;;
17725;SDS011;8983;53.156;17.960;2023-02-03T13:30:39;16.03;;;8.80;;
17725;SDS011;8983;53.156;17.960;2023-02-03T13:33:25;19.23;;;10.10;;
17725;SDS011;8983;53.156;17.960;2023-02-03T13:39:25;17.17;;;9.60;;
17725;SDS011;8983;53.156;17.960;2023-02-03T13:42:15;25.47;;;12.43;;
17725;SDS011;8983;53.156;17.960;2023-02-03T13:44:52;56.10;;;29.43;;
17725;SDS011;8983;53.156;17.960;2023-02-03T13:47:25;61.07;;;22.53;;
17725;SDS011;8983;53.156;17.960;2023-02-03T13:49:55;74.40;;;26.23;;
17725;SDS011;8983;53.156;17.960;2023-02-03T13:52:28;182.27;;;60.30;;
17725;SDS011;8983;53.156;17.960;2023-02-03T13:55:00;180.30;;;54.67;;
17725;SDS011;8983;53.156;17.960;2023-02-03T13:57:31;81.77;;;32.47;;
17725;SDS011;8983;53.156;17.960;2023-02-03T14:00:01;37.87;;;18.53;;
17725;SDS011;8983;53.156;17.960;2023-02-03T14:05:37;35.23;;;16.93;;
17725;SDS011;8983;53.156;17.960;2023-02-03T14:17:20;33.37;;;15.97;;
17725;SDS011;8983;53.156;17.960;2023-02-03T14:20:33;42.73;;;16.20;;
17725;SDS011;8983;53.156;17.960;2023-02-03T14:23:19;44.87;;;16.80;;
17725;SDS011;8983;53.156;17.960;2023-02-03T14:25:51;42.83;;;16.87;;
17725;SDS011;8983;53.156;17.960;2023-02-03T14:28:23;30.53;;;14.67;;
17725;SDS011;8983;53.156;17.960;2023-02-03T14:31:01;30.70;;;15.23;;
17725;SDS011;8983;53.156;17.960;2023-02-03T14:33:52;29.37;;;13.73;;
17725;SDS011;8983;53.156;17.960;2023-02-03T14:36:34;24.07;;;14.73;;
17725;SDS011;8983;53.156;17.960;2023-02-03T14:39:26;34.53;;;17.50;;
17725;SDS011;8983;53.156;17.960;2023-02-03T14:42:07;32.10;;;16.70;;
17725;SDS011;8983;53.156;17.960;2023-02-03T14:44:44;37.00;;;16.37;;
17725;SDS011;8983;53.156;17.960;2023-02-03T14:47:28;51.93;;;19.87;;
17725;SDS011;8983;53.156;17.960;2023-02-03T14:50:22;45.37;;;17.97;;
17725;SDS011;8983;53.156;17.960;2023-02-03T14:53:06;40.00;;;16.20;;
17725;SDS011;8983;53.156;17.960;2023-02-03T14:55:49;31.50;;;14.50;;
17725;SDS011;8983;53.156;17.960;2023-02-03T14:58:25;33.10;;;15.60;;
17725;SDS011;8983;53.156;17.960;2023-02-03T15:00:59;28.10;;;13.87;;
17725;SDS011;8983;53.156;17.960;2023-02-03T15:03:29;21.00;;;11.87;;
17725;SDS011;8983;53.156;17.960;2023-02-03T15:05:58;24.03;;;11.63;;
17725;SDS011;8983;53.156;17.960;2023-02-03T15:08:31;30.00;;;13.47;;
17725;SDS011;8983;53.156;17.960;2023-02-03T15:11:29;27.60;;;12.77;;
17725;SDS011;8983;53.156;17.960;2023-02-03T15:14:17;25.03;;;12.27;;
17725;SDS011;8983;53.156;17.960;2023-02-03T15:16:47;23.00;;;10.53;;
17725;SDS011;8983;53.156;17.960;2023-02-03T15:19:22;22.93;;;10.87;;
17725;SDS011;8983;53.156;17.960;2023-02-03T15:21:51;22.23;;;9.80;;
17725;SDS011;8983;53.156;17.960;2023-02-03T15:24:21;19.23;;;10.33;;
17725;SDS011;8983;53.156;17.960;2023-02-03T15:26:51;12.67;;;6.90;;
17725;SDS011;8983;53.156;17.960;2023-02-03T15:29:21;15.43;;;8.33;;